sensor_id;sensor_type;location;lat;lon;timestamp;P1;durP1;ratioP1;P2;durP2;ratioP2
75576;SDS011;64157;50.138;14.544;2022-12-22T00:00:00;57.85;;;24.67;;
75576;SDS011;64157;50.138;14.544;2022-12-22T00:02:45;54.55;;;20.13;;
75576;SDS011;64157;50.138;14.544;2022-12-22T00:05:29;66.00;;;26.65;;
75576;SDS011;64157;50.138;14.544;2022-12-22T00:08:13;64.65;;;28.10;;
75576;SDS011;64157;50.138;14.544;2022-12-22T00:10:57;74.30;;;30.33;;
75576;SDS011;64157;50.138;14.544;2022-12-22T00:13:43;81.32;;;29.35;;
75576;SDS011;64157;50.138;14.544;2022-12-22T00:16:30;73.00;;;27.52;;
75576;SDS011;64157;50.138;14.544;2022-12-22T00:19:16;65.63;;;27.45;;
75576;SDS011;64157;50.138;14.544;2022-12-22T00:22:03;55.28;;;20.20;;
75576;SDS011;64157;50.138;14.544;2022-12-22T00:24:54;66.72;;;27.13;;
75576;SDS011;64157;50.138;14.544;2022-12-22T00:27:38;63.65;;;25.92;;
75576;SDS011;64157;50.138;14.544;2022-12-22T00:30:22;66.07;;;30.63;;
75576;SDS011;64157;50.138;14.544;2022-12-22T00:33:08;78.07;;;30.90;;
75576;SDS011;64157;50.138;14.544;2022-12-22T00:35:56;71.03;;;27.80;;
75576;SDS011;64157;50.138;14.544;2022-12-22T00:38:40;70.32;;;28.52;;
75576;SDS011;64157;50.138;14.544;2022-12-22T00:41:24;72.70;;;30.05;;
75576;SDS011;64157;50.138;14.544;2022-12-22T00:44:08;70.18;;;26.73;;
75576;SDS011;64157;50.138;14.544;2022-12-22T00:46:51;72.78;;;29.98;;
75576;SDS011;64157;50.138;14.544;2022-12-22T00:49:35;66.32;;;28.08;;
75576;SDS011;64157;50.138;14.544;2022-12-22T00:52:20;73.63;;;25.98;;
75576;SDS011;64157;50.138;14.544;2022-12-22T00:55:12;63.75;;;26.63;;
75576;SDS011;64157;50.138;14.544;2022-12-22T00:57:58;64.55;;;27.83;;
75576;SDS011;64157;50.138;14.544;2022-12-22T01:00:44;68.95;;;27.83;;
75576;SDS011;64157;50.138;14.544;2022-12-22T01:03:28;70.97;;;28.15;;
75576;SDS011;64157;50.138;14.544;2022-12-22T01:06:12;75.70;;;30.10;;
75576;SDS011;64157;50.138;14.544;2022-12-22T01:08:56;74.93;;;28.67;;
75576;SDS011;64157;50.138;14.544;2022-12-22T01:11:40;83.88;;;30.35;;
75576;SDS011;64157;50.138;14.544;2022-12-22T01:14:24;76.90;;;31.80;;
75576;SDS011;64157;50.138;14.544;2022-12-22T01:17:09;61.10;;;25.65;;
75576;SDS011;64157;50.138;14.544;2022-12-22T01:19:52;76.68;;;29.50;;
75576;SDS011;64157;50.138;14.544;2022-12-22T01:22:36;72.97;;;30.23;;
75576;SDS011;64157;50.138;14.544;2022-12-22T01:25:20;71.55;;;29.17;;
75576;SDS011;64157;50.138;14.544;2022-12-22T01:28:05;65.65;;;27.38;;
75576;SDS011;64157;50.138;14.544;2022-12-22T01:30:49;70.25;;;26.92;;
75576;SDS011;64157;50.138;14.544;2022-12-22T01:33:33;68.88;;;27.98;;
75576;SDS011;64157;50.138;14.544;2022-12-22T01:36:17;80.18;;;29.45;;
75576;SDS011;64157;50.138;14.544;2022-12-22T01:39:01;79.00;;;29.52;;
75576;SDS011;64157;50.138;14.544;2022-12-22T01:41:46;90.10;;;29.00;;
75576;SDS011;64157;50.138;14.544;2022-12-22T01:44:32;82.30;;;29.65;;
75576;SDS011;64157;50.138;14.544;2022-12-22T01:50:23;106.32;;;30.17;;
75576;SDS011;64157;50.138;14.544;2022-12-22T01:53:14;71.13;;;21.92;;
75576;SDS011;64157;50.138;14.544;2022-12-22T01:56:02;99.07;;;25.63;;
75576;SDS011;64157;50.138;14.544;2022-12-22T01:58:49;69.65;;;22.05;;
75576;SDS011;64157;50.138;14.544;2022-12-22T02:01:36;79.95;;;23.17;;
75576;SDS011;64157;50.138;14.544;2022-12-22T02:04:23;73.05;;;22.17;;
75576;SDS011;64157;50.138;14.544;2022-12-22T02:07:17;85.03;;;25.63;;
75576;SDS011;64157;50.138;14.544;2022-12-22T02:23:05;96.97;;;24.05;;
75576;SDS011;64157;50.138;14.544;2022-12-22T02:29:02;75.85;;;22.05;;
75576;SDS011;64157;50.138;14.544;2022-12-22T02:31:48;132.23;;;27.38;;
75576;SDS011;64157;50.138;14.544;2022-12-22T02:34:32;87.10;;;23.77;;
75576;SDS011;64157;50.138;14.544;2022-12-22T02:43:05;86.32;;;24.90;;
75576;SDS011;64157;50.138;14.544;2022-12-22T02:46:04;59.63;;;21.60;;
75576;SDS011;64157;50.138;14.544;2022-12-22T02:48:58;59.08;;;20.23;;
75576;SDS011;64157;50.138;14.544;2022-12-22T02:51:48;92.35;;;25.65;;
75576;SDS011;64157;50.138;14.544;2022-12-22T02:54:38;93.05;;;25.33;;
75576;SDS011;64157;50.138;14.544;2022-12-22T02:57:22;86.85;;;26.08;;
75576;SDS011;64157;50.138;14.544;2022-12-22T03:00:06;73.70;;;26.52;;
75576;SDS011;64157;50.138;14.544;2022-12-22T03:02:51;56.17;;;24.08;;
75576;SDS011;64157;50.138;14.544;2022-12-22T03:05:35;103.60;;;26.42;;
75576;SDS011;64157;50.138;14.544;2022-12-22T03:08:19;111.10;;;25.58;;
75576;SDS011;64157;50.138;14.544;2022-12-22T03:11:03;61.65;;;23.73;;
75576;SDS011;64157;50.138;14.544;2022-12-22T03:13:47;82.85;;;23.80;;
75576;SDS011;64157;50.138;14.544;2022-12-22T03:16:31;83.03;;;28.17;;
75576;SDS011;64157;50.138;14.544;2022-12-22T03:19:15;125.18;;;26.90;;
75576;SDS011;64157;50.138;14.544;2022-12-22T03:21:59;145.90;;;26.02;;
75576;SDS011;64157;50.138;14.544;2022-12-22T03:24:43;195.05;;;26.88;;
75576;SDS011;64157;50.138;14.544;2022-12-22T03:27:26;106.28;;;21.35;;
75576;SDS011;64157;50.138;14.544;2022-12-22T03:29:52;154.73;;;26.15;;
75576;SDS011;64157;50.138;14.544;2022-12-22T03:32:17;118.68;;;24.73;;
75576;SDS011;64157;50.138;14.544;2022-12-22T03:34:43;131.60;;;25.92;;
75576;SDS011;64157;50.138;14.544;2022-12-22T03:37:08;49.95;;;17.13;;
75576;SDS011;64157;50.138;14.544;2022-12-22T03:39:34;72.38;;;20.15;;
75576;SDS011;64157;50.138;14.544;2022-12-22T03:41:59;70.85;;;22.33;;
75576;SDS011;64157;50.138;14.544;2022-12-22T03:44:43;55.47;;;19.30;;
75576;SDS011;64157;50.138;14.544;2022-12-22T03:47:29;24.83;;;11.13;;
75576;SDS011;64157;50.138;14.544;2022-12-22T03:49:55;16.45;;;10.20;;
75576;SDS011;64157;50.138;14.544;2022-12-22T03:52:20;54.75;;;21.40;;
75576;SDS011;64157;50.138;14.544;2022-12-22T03:54:46;22.05;;;10.32;;
75576;SDS011;64157;50.138;14.544;2022-12-22T03:57:11;21.20;;;9.43;;
75576;SDS011;64157;50.138;14.544;2022-12-22T03:59:37;21.85;;;12.02;;
75576;SDS011;64157;50.138;14.544;2022-12-22T04:02:02;28.73;;;11.85;;
75576;SDS011;64157;50.138;14.544;2022-12-22T04:04:28;34.83;;;14.57;;
75576;SDS011;64157;50.138;14.544;2022-12-22T04:06:53;21.88;;;10.20;;
75576;SDS011;64157;50.138;14.544;2022-12-22T04:09:19;43.47;;;18.30;;
75576;SDS011;64157;50.138;14.544;2022-12-22T04:11:46;28.92;;;15.15;;
75576;SDS011;64157;50.138;14.544;2022-12-22T04:14:30;22.83;;;12.00;;
75576;SDS011;64157;50.138;14.544;2022-12-22T04:16:55;40.75;;;16.90;;
75576;SDS011;64157;50.138;14.544;2022-12-22T04:19:21;24.35;;;12.18;;
75576;SDS011;64157;50.138;14.544;2022-12-22T04:21:48;51.72;;;22.55;;
75576;SDS011;64157;50.138;14.544;2022-12-22T04:24:14;33.15;;;14.90;;
75576;SDS011;64157;50.138;14.544;2022-12-22T04:26:40;36.08;;;16.88;;
75576;SDS011;64157;50.138;14.544;2022-12-22T04:29:06;29.98;;;14.65;;
75576;SDS011;64157;50.138;14.544;2022-12-22T04:31:31;27.77;;;13.80;;
75576;SDS011;64157;50.138;14.544;2022-12-22T04:33:57;45.13;;;22.20;;
75576;SDS011;64157;50.138;14.544;2022-12-22T04:36:22;38.63;;;17.05;;
75576;SDS011;64157;50.138;14.544;2022-12-22T04:38:47;42.55;;;19.15;;
75576;SDS011;64157;50.138;14.544;2022-12-22T04:41:13;39.20;;;17.55;;
75576;SDS011;64157;50.138;14.544;2022-12-22T04:43:38;42.80;;;20.67;;
75576;SDS011;64157;50.138;14.544;2022-12-22T04:46:04;36.40;;;16.95;;
75576;SDS011;64157;50.138;14.544;2022-12-22T04:48:30;42.97;;;17.88;;
75576;SDS011;64157;50.138;14.544;2022-12-22T04:50:57;27.48;;;13.60;;
75576;SDS011;64157;50.138;14.544;2022-12-22T04:53:24;50.05;;;19.25;;
75576;SDS011;64157;50.138;14.544;2022-12-22T04:56:09;41.58;;;17.77;;
75576;SDS011;64157;50.138;14.544;2022-12-22T04:58:34;40.13;;;17.80;;
75576;SDS011;64157;50.138;14.544;2022-12-22T05:01:07;37.95;;;15.95;;
75576;SDS011;64157;50.138;14.544;2022-12-22T05:03:35;41.05;;;19.05;;
75576;SDS011;64157;50.138;14.544;2022-12-22T05:06:00;41.17;;;18.70;;
75576;SDS011;64157;50.138;14.544;2022-12-22T05:08:26;45.05;;;19.02;;
75576;SDS011;64157;50.138;14.544;2022-12-22T05:10:51;45.55;;;19.38;;
75576;SDS011;64157;50.138;14.544;2022-12-22T05:13:16;45.15;;;19.98;;
75576;SDS011;64157;50.138;14.544;2022-12-22T05:15:42;32.65;;;16.70;;
75576;SDS011;64157;50.138;14.544;2022-12-22T05:18:07;41.45;;;16.50;;
75576;SDS011;64157;50.138;14.544;2022-12-22T05:20:33;39.03;;;15.73;;
75576;SDS011;64157;50.138;14.544;2022-12-22T05:23:00;31.60;;;14.75;;
75576;SDS011;64157;50.138;14.544;2022-12-22T05:25:25;31.42;;;15.57;;
75576;SDS011;64157;50.138;14.544;2022-12-22T05:27:51;29.63;;;13.90;;
75576;SDS011;64157;50.138;14.544;2022-12-22T05:30:16;17.15;;;10.35;;
75576;SDS011;64157;50.138;14.544;2022-12-22T05:32:43;21.60;;;11.02;;
75576;SDS011;64157;50.138;14.544;2022-12-22T05:35:08;20.65;;;11.07;;
75576;SDS011;64157;50.138;14.544;2022-12-22T05:37:34;17.67;;;8.98;;
75576;SDS011;64157;50.138;14.544;2022-12-22T05:40:00;18.30;;;9.80;;
75576;SDS011;64157;50.138;14.544;2022-12-22T05:42:25;18.38;;;9.95;;
75576;SDS011;64157;50.138;14.544;2022-12-22T05:47:42;16.25;;;8.98;;
75576;SDS011;64157;50.138;14.544;2022-12-22T05:50:09;15.75;;;9.05;;
75576;SDS011;64157;50.138;14.544;2022-12-22T05:52:35;20.27;;;9.43;;
75576;SDS011;64157;50.138;14.544;2022-12-22T05:55:01;12.07;;;7.53;;
75576;SDS011;64157;50.138;14.544;2022-12-22T05:57:27;18.92;;;10.30;;
75576;SDS011;64157;50.138;14.544;2022-12-22T05:59:53;20.35;;;9.48;;
75576;SDS011;64157;50.138;14.544;2022-12-22T06:02:18;15.32;;;8.80;;
75576;SDS011;64157;50.138;14.544;2022-12-22T06:04:44;17.00;;;8.88;;
75576;SDS011;64157;50.138;14.544;2022-12-22T06:07:09;9.18;;;7.03;;
75576;SDS011;64157;50.138;14.544;2022-12-22T06:09:34;19.45;;;9.27;;
75576;SDS011;64157;50.138;14.544;2022-12-22T06:12:00;16.27;;;9.00;;
75576;SDS011;64157;50.138;14.544;2022-12-22T06:14:26;14.82;;;8.23;;
75576;SDS011;64157;50.138;14.544;2022-12-22T06:16:52;18.92;;;10.82;;
75576;SDS011;64157;50.138;14.544;2022-12-22T06:19:17;18.77;;;9.45;;
75576;SDS011;64157;50.138;14.544;2022-12-22T06:21:43;16.67;;;8.65;;
75576;SDS011;64157;50.138;14.544;2022-12-22T06:24:08;19.80;;;10.85;;
75576;SDS011;64157;50.138;14.544;2022-12-22T06:26:34;17.48;;;8.68;;
75576;SDS011;64157;50.138;14.544;2022-12-22T06:28:59;12.65;;;7.15;;
75576;SDS011;64157;50.138;14.544;2022-12-22T06:31:24;13.70;;;7.78;;
75576;SDS011;64157;50.138;14.544;2022-12-22T06:33:50;14.90;;;7.05;;
75576;SDS011;64157;50.138;14.544;2022-12-22T06:36:15;12.30;;;6.30;;
75576;SDS011;64157;50.138;14.544;2022-12-22T06:38:41;8.90;;;6.38;;
75576;SDS011;64157;50.138;14.544;2022-12-22T06:41:06;18.70;;;9.10;;
75576;SDS011;64157;50.138;14.544;2022-12-22T06:43:31;16.50;;;8.45;;
75576;SDS011;64157;50.138;14.544;2022-12-22T06:45:57;17.15;;;7.43;;
75576;SDS011;64157;50.138;14.544;2022-12-22T06:48:22;12.02;;;6.38;;
75576;SDS011;64157;50.138;14.544;2022-12-22T06:50:48;13.25;;;8.43;;
75576;SDS011;64157;50.138;14.544;2022-12-22T06:53:13;12.45;;;7.57;;
75576;SDS011;64157;50.138;14.544;2022-12-22T06:55:39;11.25;;;6.78;;
75576;SDS011;64157;50.138;14.544;2022-12-22T06:58:04;12.85;;;7.28;;
75576;SDS011;64157;50.138;14.544;2022-12-22T07:00:30;10.60;;;7.18;;
75576;SDS011;64157;50.138;14.544;2022-12-22T07:02:56;14.57;;;8.80;;
75576;SDS011;64157;50.138;14.544;2022-12-22T07:05:22;18.30;;;9.43;;
75576;SDS011;64157;50.138;14.544;2022-12-22T07:07:48;15.82;;;8.30;;
75576;SDS011;64157;50.138;14.544;2022-12-22T07:10:13;13.95;;;8.13;;
75576;SDS011;64157;50.138;14.544;2022-12-22T07:12:39;11.02;;;6.47;;
75576;SDS011;64157;50.138;14.544;2022-12-22T07:15:05;16.85;;;9.93;;
75576;SDS011;64157;50.138;14.544;2022-12-22T07:17:31;11.40;;;7.20;;
75576;SDS011;64157;50.138;14.544;2022-12-22T07:19:57;9.15;;;6.25;;
75576;SDS011;64157;50.138;14.544;2022-12-22T07:22:22;12.93;;;7.30;;
75576;SDS011;64157;50.138;14.544;2022-12-22T07:24:48;14.48;;;7.75;;
75576;SDS011;64157;50.138;14.544;2022-12-22T07:27:14;15.60;;;8.60;;
75576;SDS011;64157;50.138;14.544;2022-12-22T07:29:39;11.45;;;7.93;;
75576;SDS011;64157;50.138;14.544;2022-12-22T07:32:06;9.98;;;6.38;;
75576;SDS011;64157;50.138;14.544;2022-12-22T07:34:31;15.60;;;7.95;;
75576;SDS011;64157;50.138;14.544;2022-12-22T07:36:57;11.50;;;6.78;;
75576;SDS011;64157;50.138;14.544;2022-12-22T07:39:22;7.68;;;5.75;;
75576;SDS011;64157;50.138;14.544;2022-12-22T07:41:48;9.23;;;6.28;;
75576;SDS011;64157;50.138;14.544;2022-12-22T07:44:31;14.88;;;8.07;;
75576;SDS011;64157;50.138;14.544;2022-12-22T07:46:57;9.95;;;6.82;;
75576;SDS011;64157;50.138;14.544;2022-12-22T07:49:22;10.45;;;7.07;;
75576;SDS011;64157;50.138;14.544;2022-12-22T07:52:06;9.65;;;5.20;;
75576;SDS011;64157;50.138;14.544;2022-12-22T07:54:32;8.30;;;6.35;;
75576;SDS011;64157;50.138;14.544;2022-12-22T07:56:58;9.07;;;6.25;;
75576;SDS011;64157;50.138;14.544;2022-12-22T07:59:24;10.68;;;6.95;;
75576;SDS011;64157;50.138;14.544;2022-12-22T08:01:49;11.57;;;6.47;;
75576;SDS011;64157;50.138;14.544;2022-12-22T08:04:15;9.95;;;6.40;;
75576;SDS011;64157;50.138;14.544;2022-12-22T08:06:41;8.70;;;6.13;;
75576;SDS011;64157;50.138;14.544;2022-12-22T08:09:06;11.02;;;7.30;;
75576;SDS011;64157;50.138;14.544;2022-12-22T08:11:33;10.38;;;6.25;;
75576;SDS011;64157;50.138;14.544;2022-12-22T08:13:58;7.95;;;5.63;;
75576;SDS011;64157;50.138;14.544;2022-12-22T08:16:24;12.05;;;7.07;;
75576;SDS011;64157;50.138;14.544;2022-12-22T08:18:49;5.88;;;4.97;;
75576;SDS011;64157;50.138;14.544;2022-12-22T08:21:15;8.55;;;5.68;;
75576;SDS011;64157;50.138;14.544;2022-12-22T08:23:41;11.50;;;7.13;;
75576;SDS011;64157;50.138;14.544;2022-12-22T08:26:09;12.43;;;6.93;;
75576;SDS011;64157;50.138;14.544;2022-12-22T08:31:08;8.73;;;6.25;;
75576;SDS011;64157;50.138;14.544;2022-12-22T08:33:34;8.90;;;5.60;;
75576;SDS011;64157;50.138;14.544;2022-12-22T08:36:00;9.65;;;6.20;;
75576;SDS011;64157;50.138;14.544;2022-12-22T08:38:26;5.57;;;4.82;;
75576;SDS011;64157;50.138;14.544;2022-12-22T08:40:51;9.90;;;5.38;;
75576;SDS011;64157;50.138;14.544;2022-12-22T08:43:17;9.05;;;5.40;;
75576;SDS011;64157;50.138;14.544;2022-12-22T08:45:44;16.77;;;7.32;;
75576;SDS011;64157;50.138;14.544;2022-12-22T08:48:09;8.30;;;5.18;;
75576;SDS011;64157;50.138;14.544;2022-12-22T08:50:35;8.90;;;5.85;;
75576;SDS011;64157;50.138;14.544;2022-12-22T08:53:04;7.72;;;5.22;;
75576;SDS011;64157;50.138;14.544;2022-12-22T08:55:31;10.35;;;6.35;;
75576;SDS011;64157;50.138;14.544;2022-12-22T08:57:56;10.52;;;5.88;;
75576;SDS011;64157;50.138;14.544;2022-12-22T09:00:22;10.88;;;5.85;;
75576;SDS011;64157;50.138;14.544;2022-12-22T09:02:48;10.35;;;7.38;;
75576;SDS011;64157;50.138;14.544;2022-12-22T09:05:13;6.57;;;4.63;;
75576;SDS011;64157;50.138;14.544;2022-12-22T09:07:39;7.82;;;5.38;;
75576;SDS011;64157;50.138;14.544;2022-12-22T09:10:05;10.73;;;4.95;;
75576;SDS011;64157;50.138;14.544;2022-12-22T09:12:32;8.52;;;5.85;;
75576;SDS011;64157;50.138;14.544;2022-12-22T09:14:58;7.47;;;4.72;;
75576;SDS011;64157;50.138;14.544;2022-12-22T09:17:24;6.93;;;4.68;;
75576;SDS011;64157;50.138;14.544;2022-12-22T09:19:49;9.80;;;6.05;;
75576;SDS011;64157;50.138;14.544;2022-12-22T09:22:15;9.15;;;6.57;;
75576;SDS011;64157;50.138;14.544;2022-12-22T09:24:40;5.43;;;3.58;;
75576;SDS011;64157;50.138;14.544;2022-12-22T09:27:06;9.38;;;6.93;;
75576;SDS011;64157;50.138;14.544;2022-12-22T09:29:33;6.80;;;4.68;;
75576;SDS011;64157;50.138;14.544;2022-12-22T09:32:00;11.02;;;6.60;;
75576;SDS011;64157;50.138;14.544;2022-12-22T09:34:25;8.00;;;5.03;;
75576;SDS011;64157;50.138;14.544;2022-12-22T09:36:51;7.22;;;5.15;;
75576;SDS011;64157;50.138;14.544;2022-12-22T09:39:16;12.10;;;7.63;;
75576;SDS011;64157;50.138;14.544;2022-12-22T09:41:44;11.88;;;7.68;;
75576;SDS011;64157;50.138;14.544;2022-12-22T09:44:19;13.65;;;7.93;;
75576;SDS011;64157;50.138;14.544;2022-12-22T09:46:51;11.02;;;7.40;;
75576;SDS011;64157;50.138;14.544;2022-12-22T09:49:19;6.72;;;4.45;;
75576;SDS011;64157;50.138;14.544;2022-12-22T09:51:50;10.27;;;6.20;;
75576;SDS011;64157;50.138;14.544;2022-12-22T09:54:18;12.40;;;6.35;;
75576;SDS011;64157;50.138;14.544;2022-12-22T09:56:45;14.07;;;7.93;;
75576;SDS011;64157;50.138;14.544;2022-12-22T09:59:11;8.40;;;6.90;;
75576;SDS011;64157;50.138;14.544;2022-12-22T10:09:56;5.57;;;4.38;;
75576;SDS011;64157;50.138;14.544;2022-12-22T10:12:23;6.78;;;4.10;;
75576;SDS011;64157;50.138;14.544;2022-12-22T10:14:50;6.50;;;4.05;;
75576;SDS011;64157;50.138;14.544;2022-12-22T10:19:51;11.88;;;5.80;;
75576;SDS011;64157;50.138;14.544;2022-12-22T10:22:21;9.73;;;5.75;;
75576;SDS011;64157;50.138;14.544;2022-12-22T10:24:52;8.75;;;5.78;;
75576;SDS011;64157;50.138;14.544;2022-12-22T10:27:19;12.18;;;5.35;;
75576;SDS011;64157;50.138;14.544;2022-12-22T10:29:48;8.73;;;4.67;;
75576;SDS011;64157;50.138;14.544;2022-12-22T10:32:14;6.97;;;3.60;;
75576;SDS011;64157;50.138;14.544;2022-12-22T10:34:58;6.05;;;4.05;;
75576;SDS011;64157;50.138;14.544;2022-12-22T10:37:30;11.18;;;4.57;;
75576;SDS011;64157;50.138;14.544;2022-12-22T10:40:16;7.93;;;5.43;;
75576;SDS011;64157;50.138;14.544;2022-12-22T10:42:47;8.00;;;5.35;;
75576;SDS011;64157;50.138;14.544;2022-12-22T10:45:20;6.43;;;4.03;;
75576;SDS011;64157;50.138;14.544;2022-12-22T10:47:48;9.73;;;6.25;;
75576;SDS011;64157;50.138;14.544;2022-12-22T10:50:16;7.10;;;5.43;;
75576;SDS011;64157;50.138;14.544;2022-12-22T10:52:48;8.73;;;5.13;;
75576;SDS011;64157;50.138;14.544;2022-12-22T10:55:37;9.95;;;5.80;;
75576;SDS011;64157;50.138;14.544;2022-12-22T11:00:35;8.18;;;5.53;;
75576;SDS011;64157;50.138;14.544;2022-12-22T11:03:03;9.55;;;3.25;;
75576;SDS011;64157;50.138;14.544;2022-12-22T11:05:30;5.00;;;3.80;;
75576;SDS011;64157;50.138;14.544;2022-12-22T11:07:56;10.32;;;5.38;;
75576;SDS011;64157;50.138;14.544;2022-12-22T11:15:51;8.95;;;5.57;;
75576;SDS011;64157;50.138;14.544;2022-12-22T11:24:09;9.18;;;4.82;;
75576;SDS011;64157;50.138;14.544;2022-12-22T11:26:48;8.07;;;5.20;;
75576;SDS011;64157;50.138;14.544;2022-12-22T11:32:27;8.60;;;5.07;;
75576;SDS011;64157;50.138;14.544;2022-12-22T11:37:55;5.55;;;4.07;;
75576;SDS011;64157;50.138;14.544;2022-12-22T11:40:37;8.48;;;4.55;;
75576;SDS011;64157;50.138;14.544;2022-12-22T11:43:21;8.90;;;4.30;;
75576;SDS011;64157;50.138;14.544;2022-12-22T11:46:09;5.75;;;3.60;;
75576;SDS011;64157;50.138;14.544;2022-12-22T12:02:56;7.40;;;5.30;;
75576;SDS011;64157;50.138;14.544;2022-12-22T12:08:16;5.65;;;3.80;;
75576;SDS011;64157;50.138;14.544;2022-12-22T12:10:50;5.63;;;3.78;;
75576;SDS011;64157;50.138;14.544;2022-12-22T12:16:39;4.53;;;3.42;;
75576;SDS011;64157;50.138;14.544;2022-12-22T12:19:39;6.55;;;4.00;;
75576;SDS011;64157;50.138;14.544;2022-12-22T12:25:15;5.25;;;2.67;;
75576;SDS011;64157;50.138;14.544;2022-12-22T12:28:28;4.95;;;3.67;;
75576;SDS011;64157;50.138;14.544;2022-12-22T12:30:35;7.70;;;3.78;;
75576;SDS011;64157;50.138;14.544;2022-12-22T12:43:34;9.88;;;3.28;;
75576;SDS011;64157;50.138;14.544;2022-12-22T12:46:01;6.60;;;2.88;;
75576;SDS011;64157;50.138;14.544;2022-12-22T12:49:28;3.58;;;2.72;;
75576;SDS011;64157;50.138;14.544;2022-12-22T12:52:03;5.13;;;2.20;;
75576;SDS011;64157;50.138;14.544;2022-12-22T12:56:57;3.42;;;2.10;;
75576;SDS011;64157;50.138;14.544;2022-12-22T13:13:42;6.45;;;1.42;;
75576;SDS011;64157;50.138;14.544;2022-12-22T13:23:27;4.20;;;1.50;;
75576;SDS011;64157;50.138;14.544;2022-12-22T13:26:01;3.65;;;1.63;;
75576;SDS011;64157;50.138;14.544;2022-12-22T13:28:34;4.55;;;2.05;;
75576;SDS011;64157;50.138;14.544;2022-12-22T13:31:20;4.65;;;1.90;;
75576;SDS011;64157;50.138;14.544;2022-12-22T13:34:03;2.65;;;1.33;;
75576;SDS011;64157;50.138;14.544;2022-12-22T13:36:52;5.45;;;1.73;;
75576;SDS011;64157;50.138;14.544;2022-12-22T13:39:18;4.00;;;1.42;;
75576;SDS011;64157;50.138;14.544;2022-12-22T13:41:44;7.20;;;1.70;;
75576;SDS011;64157;50.138;14.544;2022-12-22T13:44:30;2.38;;;1.90;;
75576;SDS011;64157;50.138;14.544;2022-12-22T13:47:05;4.05;;;1.60;;
75576;SDS011;64157;50.138;14.544;2022-12-22T13:49:34;5.60;;;1.58;;
75576;SDS011;64157;50.138;14.544;2022-12-22T13:52:00;1.20;;;1.10;;
75576;SDS011;64157;50.138;14.544;2022-12-22T13:54:34;2.78;;;1.67;;
75576;SDS011;64157;50.138;14.544;2022-12-22T13:57:02;1.33;;;1.20;;
75576;SDS011;64157;50.138;14.544;2022-12-22T13:59:40;3.22;;;1.13;;
75576;SDS011;64157;50.138;14.544;2022-12-22T14:04:33;1.90;;;1.35;;
75576;SDS011;64157;50.138;14.544;2022-12-22T14:07:12;2.58;;;1.17;;
75576;SDS011;64157;50.138;14.544;2022-12-22T14:09:46;1.65;;;1.30;;
75576;SDS011;64157;50.138;14.544;2022-12-22T14:14:41;4.13;;;1.63;;
75576;SDS011;64157;50.138;14.544;2022-12-22T14:19:47;4.40;;;1.23;;
75576;SDS011;64157;50.138;14.544;2022-12-22T14:22:17;4.28;;;1.10;;
75576;SDS011;64157;50.138;14.544;2022-12-22T14:24:50;3.50;;;1.45;;
75576;SDS011;64157;50.138;14.544;2022-12-22T14:30:06;3.60;;;1.50;;
75576;SDS011;64157;50.138;14.544;2022-12-22T14:32:52;3.10;;;1.33;;
75576;SDS011;64157;50.138;14.544;2022-12-22T14:35:23;2.97;;;1.17;;
75576;SDS011;64157;50.138;14.544;2022-12-22T14:38:12;2.00;;;1.70;;
75576;SDS011;64157;50.138;14.544;2022-12-22T14:40:41;2.77;;;1.17;;
75576;SDS011;64157;50.138;14.544;2022-12-22T14:45:41;1.92;;;1.58;;
75576;SDS011;64157;50.138;14.544;2022-12-22T14:48:08;2.83;;;1.42;;
75576;SDS011;64157;50.138;14.544;2022-12-22T14:50:45;2.30;;;1.67;;
75576;SDS011;64157;50.138;14.544;2022-12-22T14:53:13;3.30;;;1.70;;
75576;SDS011;64157;50.138;14.544;2022-12-22T14:55:41;4.50;;;1.58;;
75576;SDS011;64157;50.138;14.544;2022-12-22T14:58:16;3.13;;;1.33;;
75576;SDS011;64157;50.138;14.544;2022-12-22T15:00:48;6.93;;;1.95;;
75576;SDS011;64157;50.138;14.544;2022-12-22T15:03:35;2.95;;;1.40;;
75576;SDS011;64157;50.138;14.544;2022-12-22T15:08:48;4.95;;;1.40;;
75576;SDS011;64157;50.138;14.544;2022-12-22T15:11:17;4.47;;;1.60;;
75576;SDS011;64157;50.138;14.544;2022-12-22T15:13:44;3.35;;;1.90;;
75576;SDS011;64157;50.138;14.544;2022-12-22T15:16:12;4.22;;;1.80;;
75576;SDS011;64157;50.138;14.544;2022-12-22T15:18:40;3.40;;;1.45;;
75576;SDS011;64157;50.138;14.544;2022-12-22T15:21:07;1.17;;;1.15;;
75576;SDS011;64157;50.138;14.544;2022-12-22T15:26:02;2.75;;;1.42;;
75576;SDS011;64157;50.138;14.544;2022-12-22T15:28:27;10.82;;;1.27;;
75576;SDS011;64157;50.138;14.544;2022-12-22T15:30:52;2.58;;;1.45;;
75576;SDS011;64157;50.138;14.544;2022-12-22T15:33:18;3.38;;;2.08;;
75576;SDS011;64157;50.138;14.544;2022-12-22T15:35:44;1.85;;;1.30;;
75576;SDS011;64157;50.138;14.544;2022-12-22T15:38:20;2.30;;;1.08;;
75576;SDS011;64157;50.138;14.544;2022-12-22T15:40:47;2.63;;;1.20;;
75576;SDS011;64157;50.138;14.544;2022-12-22T15:43:13;2.40;;;1.00;;
75576;SDS011;64157;50.138;14.544;2022-12-22T15:45:40;5.55;;;1.27;;
75576;SDS011;64157;50.138;14.544;2022-12-22T15:48:06;1.83;;;0.93;;
75576;SDS011;64157;50.138;14.544;2022-12-22T15:50:40;2.05;;;0.93;;
75576;SDS011;64157;50.138;14.544;2022-12-22T15:53:07;3.65;;;1.50;;
75576;SDS011;64157;50.138;14.544;2022-12-22T15:55:43;2.70;;;1.15;;
75576;SDS011;64157;50.138;14.544;2022-12-22T15:58:14;1.58;;;1.20;;
75576;SDS011;64157;50.138;14.544;2022-12-22T16:00:42;5.82;;;1.52;;
75576;SDS011;64157;50.138;14.544;2022-12-22T16:03:08;4.55;;;1.77;;
75576;SDS011;64157;50.138;14.544;2022-12-22T16:05:35;4.70;;;1.40;;
75576;SDS011;64157;50.138;14.544;2022-12-22T16:08:00;1.23;;;1.13;;
75576;SDS011;64157;50.138;14.544;2022-12-22T16:10:28;1.58;;;1.38;;
75576;SDS011;64157;50.138;14.544;2022-12-22T16:12:56;6.03;;;1.48;;
75576;SDS011;64157;50.138;14.544;2022-12-22T16:15:31;4.55;;;2.33;;
75576;SDS011;64157;50.138;14.544;2022-12-22T16:17:58;2.63;;;1.50;;
75576;SDS011;64157;50.138;14.544;2022-12-22T16:20:24;1.58;;;1.10;;
75576;SDS011;64157;50.138;14.544;2022-12-22T16:22:52;4.88;;;2.55;;
75576;SDS011;64157;50.138;14.544;2022-12-22T16:25:23;18.02;;;7.15;;
75576;SDS011;64157;50.138;14.544;2022-12-22T16:27:54;1.98;;;1.20;;
75576;SDS011;64157;50.138;14.544;2022-12-22T16:30:23;2.42;;;1.48;;
75576;SDS011;64157;50.138;14.544;2022-12-22T16:32:52;1.50;;;1.13;;
75576;SDS011;64157;50.138;14.544;2022-12-22T16:35:18;5.15;;;2.40;;
75576;SDS011;64157;50.138;14.544;2022-12-22T16:37:46;3.78;;;1.90;;
75576;SDS011;64157;50.138;14.544;2022-12-22T16:40:15;3.03;;;1.70;;
75576;SDS011;64157;50.138;14.544;2022-12-22T16:42:44;1.17;;;1.08;;
75576;SDS011;64157;50.138;14.544;2022-12-22T16:45:21;1.60;;;1.50;;
75576;SDS011;64157;50.138;14.544;2022-12-22T16:47:50;2.17;;;1.67;;
75576;SDS011;64157;50.138;14.544;2022-12-22T16:50:17;1.73;;;1.45;;
75576;SDS011;64157;50.138;14.544;2022-12-22T16:52:47;4.03;;;1.77;;
75576;SDS011;64157;50.138;14.544;2022-12-22T16:57:41;4.32;;;2.28;;
75576;SDS011;64157;50.138;14.544;2022-12-22T17:00:08;4.70;;;2.90;;
75576;SDS011;64157;50.138;14.544;2022-12-22T17:02:38;13.30;;;6.10;;
75576;SDS011;64157;50.138;14.544;2022-12-22T17:05:04;4.68;;;3.30;;
75576;SDS011;64157;50.138;14.544;2022-12-22T17:07:43;4.13;;;2.28;;
75576;SDS011;64157;50.138;14.544;2022-12-22T17:10:12;3.30;;;2.95;;